Time;durP1;ratioP1;P1;durP2;ratioP2;P2;SDS_P1;SDS_P2;PMS_P1;PMS_P2;Temp;Humidity;BMP_temperature;BMP_pressure;BME280_temperature;BME280_humidity;BME280_pressure;Samples;Min_cycle;Max_cycle;Signal;HPM_P1;HPM_P2
2022/10/27 00:00:27;;;;;;;2.00;1.10;;;16.80;92.90;;;;;;4994386;28;20049;-80
2022/10/27 00:02:53;;;;;;;3.67;1.30;;;16.80;92.90;;;;;;4958452;28;20033;-79
2022/10/27 00:05:21;;;;;;;2.77;1.20;;;16.80;93.00;;;;;;4971802;28;20022;-80
2022/10/27 00:07:47;;;;;;;2.08;1.10;;;16.80;93.10;;;;;;4988466;28;20034;-79
2022/10/27 00:10:12;;;;;;;1.98;1.17;;;16.70;93.10;;;;;;4973334;28;20042;-79
2022/10/27 00:12:38;;;;;;;2.63;1.27;;;16.70;93.10;;;;;;4967735;28;20022;-80
2022/10/27 00:15:04;;;;;;;2.97;1.30;;;16.70;93.20;;;;;;4979977;28;20278;-80
2022/10/27 00:17:30;;;;;;;2.03;1.10;;;16.70;93.30;;;;;;4982061;28;20314;-79
2022/10/27 00:19:56;;;;;;;1.80;1.13;;;16.70;93.30;;;;;;4993235;28;20032;-79
2022/10/27 00:22:22;;;;;;;2.33;1.30;;;16.70;93.30;;;;;;4983196;28;20668;-80
2022/10/27 00:24:47;;;;;;;3.23;1.23;;;16.60;93.40;;;;;;4974702;28;20333;-80
2022/10/27 00:27:13;;;;;;;2.50;1.50;;;16.60;93.50;;;;;;4942639;28;20498;-79
2022/10/27 00:29:39;;;;;;;2.50;1.20;;;16.60;93.50;;;;;;4982977;28;20033;-80
2022/10/27 00:32:04;;;;;;;4.03;1.20;;;16.60;93.50;;;;;;4973452;28;20703;-79
2022/10/27 00:34:30;;;;;;;2.80;1.10;;;16.60;93.60;;;;;;4954990;28;20033;-79
2022/10/27 00:36:56;;;;;;;5.07;1.25;;;16.60;93.60;;;;;;4992399;28;20030;-79
2022/10/27 00:39:21;;;;;;;2.73;1.10;;;16.60;93.70;;;;;;4985427;28;20296;-80
2022/10/27 00:41:47;;;;;;;2.70;1.10;;;16.60;93.70;;;;;;4983015;28;20165;-80
2022/10/27 00:44:57;;;;;;;3.03;1.05;;;16.60;93.80;;;;;;4963078;28;20026;-79
2022/10/27 00:47:33;;;;;;;3.05;1.10;;;16.60;93.90;;;;;;4969740;28;20285;-79
2022/10/27 00:50:20;;;;;;;3.30;1.07;;;16.60;93.90;;;;;;4981088;28;20058;-80
2022/10/27 00:52:56;;;;;;;3.45;1.10;;;16.50;93.90;;;;;;4969415;28;20034;-79
2022/10/27 00:55:33;;;;;;;2.17;1.20;;;16.60;94.00;;;;;;4993625;28;20026;-80
2022/10/27 00:58:03;;;;;;;3.40;1.10;;;16.60;94.00;;;;;;4971644;28;20592;-79
2022/10/27 01:00:29;;;;;;;2.47;1.13;;;16.50;94.00;;;;;;4983944;28;20628;-80
2022/10/27 01:02:55;;;;;;;2.50;1.20;;;16.50;94.10;;;;;;4973461;28;20190;-80
2022/10/27 01:05:24;;;;;;;3.03;1.20;;;16.60;94.10;;;;;;4980130;28;20022;-80
2022/10/27 01:07:54;;;;;;;2.65;1.17;;;16.50;94.10;;;;;;4963579;28;20410;-80
2022/10/27 01:10:21;;;;;;;1.83;1.20;;;16.50;94.10;;;;;;4982675;28;20133;-80
2022/10/27 01:12:47;;;;;;;1.50;1.05;;;16.50;94.10;;;;;;4980591;28;20034;-79
2022/10/27 01:15:13;;;;;;;2.20;1.23;;;16.50;94.10;;;;;;4964281;28;20480;-79
2022/10/27 01:17:51;;;;;;;3.67;1.30;;;16.40;94.10;;;;;;4980309;28;20029;-80
2022/10/27 01:20:23;;;;;;;2.78;1.17;;;16.40;94.10;;;;;;4978658;28;20026;-80
2022/10/27 01:23:16;;;;;;;1.55;1.02;;;16.40;94.10;;;;;;4985150;28;20545;-80
2022/10/27 01:26:35;;;;;;;1.83;1.10;;;16.40;94.10;;;;;;4991679;28;20049;-80
2022/10/27 01:29:19;;;;;;;1.40;1.00;;;16.30;94.00;;;;;;4959812;28;20868;-80
2022/10/27 01:32:06;;;;;;;2.00;1.00;;;16.30;94.00;;;;;;4948856;28;20521;-80
2022/10/27 01:34:38;;;;;;;2.60;1.08;;;16.30;94.00;;;;;;4977721;28;21274;-80
2022/10/27 01:37:18;;;;;;;1.75;1.00;;;16.20;94.00;;;;;;4991873;28;20032;-80
2022/10/27 01:40:12;;;;;;;1.73;1.10;;;16.20;94.00;;;;;;4991649;28;20042;-80
2022/10/27 01:42:55;;;;;;;3.07;1.00;;;16.20;94.10;;;;;;4966826;28;20022;-81
2022/10/27 01:45:30;;;;;;;2.63;1.00;;;16.20;94.20;;;;;;4965253;28;26498;-80
2022/10/27 01:47:56;;;;;;;1.55;1.00;;;16.10;94.30;;;;;;4992770;28;20037;-80
2022/10/27 01:50:34;;;;;;;2.63;1.10;;;16.10;94.40;;;;;;4994426;28;20243;-80
2022/10/27 01:53:00;;;;;;;6.22;1.55;;;16.10;94.50;;;;;;4974502;28;20671;-81
2022/10/27 01:55:26;;;;;;;3.20;1.10;;;16.10;94.50;;;;;;4989701;28;20042;-80
2022/10/27 01:58:18;;;;;;;2.50;1.10;;;16.00;94.50;;;;;;4967662;28;20092;-80
2022/10/27 02:01:23;;;;;;;2.50;1.00;;;16.00;94.70;;;;;;4961972;28;20312;-80
2022/10/27 02:04:10;;;;;;;2.05;1.02;;;16.00;94.80;;;;;;4979408;28;20244;-80
2022/10/27 02:06:39;;;;;;;2.15;1.00;;;16.00;94.80;;;;;;4977040;28;22984;-80
2022/10/27 02:09:26;;;;;;;2.40;1.10;;;16.00;94.70;;;;;;4992028;28;20042;-80
2022/10/27 02:11:54;;;;;;;1.17;0.90;;;15.90;94.90;;;;;;4982278;28;20037;-81
2022/10/27 02:14:20;;;;;;;1.73;1.10;;;15.90;94.90;;;;;;4968935;28;20318;-80
2022/10/27 02:16:51;;;;;;;2.05;1.15;;;15.90;95.00;;;;;;4974810;28;20855;-80
2022/10/27 02:19:25;;;;;;;2.17;0.98;;;15.90;95.00;;;;;;4994602;28;20069;-80
2022/10/27 02:21:55;;;;;;;2.67;0.90;;;15.90;95.10;;;;;;4982650;28;20040;-80
2022/10/27 02:24:21;;;;;;;2.33;1.07;;;15.90;95.10;;;;;;4987555;28;20516;-80
2022/10/27 02:26:52;;;;;;;2.10;0.93;;;15.90;95.20;;;;;;4986937;28;20099;-80
2022/10/27 02:29:24;;;;;;;2.10;1.10;;;15.80;95.20;;;;;;4987651;28;20025;-81
2022/10/27 02:31:53;;;;;;;2.85;1.10;;;15.80;95.20;;;;;;4972624;28;20096;-80
2022/10/27 02:34:20;;;;;;;2.35;1.08;;;15.80;95.20;;;;;;4995281;28;20047;-80
2022/10/27 02:36:46;;;;;;;3.40;1.10;;;15.80;95.20;;;;;;4997913;28;20451;-80
2022/10/27 02:39:12;;;;;;;2.17;1.00;;;15.80;95.20;;;;;;4972157;28;20056;-80
2022/10/27 02:41:37;;;;;;;1.83;0.90;;;15.80;95.30;;;;;;4997334;28;20080;-80
2022/10/27 02:44:03;;;;;;;2.20;0.98;;;15.80;95.30;;;;;;4980165;28;22095;-80
2022/10/27 02:46:29;;;;;;;1.47;1.00;;;15.80;95.40;;;;;;4961174;28;20026;-80
2022/10/27 02:48:54;;;;;;;3.20;0.90;;;15.70;95.40;;;;;;4995071;28;20521;-80
2022/10/27 02:51:20;;;;;;;2.67;1.00;;;15.70;95.40;;;;;;4995632;28;20223;-80
2022/10/27 02:53:45;;;;;;;2.03;0.80;;;15.70;95.40;;;;;;4989922;28;20045;-80
2022/10/27 02:56:11;;;;;;;1.87;0.80;;;15.70;95.50;;;;;;4979546;28;20084;-80
2022/10/27 02:58:37;;;;;;;1.80;0.90;;;15.60;95.50;;;;;;4997561;28;20038;-80
2022/10/27 03:01:03;;;;;;;1.92;1.00;;;15.70;95.60;;;;;;4986479;28;20462;-80
2022/10/27 03:03:29;;;;;;;1.55;0.73;;;15.60;95.50;;;;;;4961042;28;20099;-80
2022/10/27 03:05:55;;;;;;;1.93;0.90;;;15.60;95.50;;;;;;4980241;28;20404;-80
2022/10/27 03:08:20;;;;;;;1.08;0.70;;;15.60;95.50;;;;;;4975958;28;21027;-80
2022/10/27 03:10:46;;;;;;;1.20;0.80;;;15.50;95.50;;;;;;4999439;28;20088;-80
2022/10/27 03:13:12;;;;;;;2.23;1.00;;;15.50;95.50;;;;;;4995132;28;20128;-80
2022/10/27 03:15:37;;;;;;;1.73;0.90;;;15.50;95.40;;;;;;4987636;28;20268;-80
2022/10/27 03:18:03;;;;;;;1.67;0.88;;;15.50;95.40;;;;;;4973365;28;20379;-80
2022/10/27 03:20:29;;;;;;;1.00;0.80;;;15.40;95.50;;;;;;4978184;28;20033;-80
2022/10/27 03:22:55;;;;;;;2.22;0.80;;;15.40;95.40;;;;;;4998761;28;20033;-80
2022/10/27 03:25:21;;;;;;;3.77;0.90;;;15.40;95.50;;;;;;4952488;28;20783;-80
2022/10/27 03:27:46;;;;;;;1.00;0.80;;;15.30;95.50;;;;;;4994748;28;20022;-80
2022/10/27 03:30:15;;;;;;;1.23;0.80;;;15.30;95.50;;;;;;4979153;28;20029;-80
2022/10/27 03:32:46;;;;;;;1.33;0.90;;;15.30;95.60;;;;;;4987268;28;20040;-80
2022/10/27 03:35:12;;;;;;;1.80;0.82;;;15.20;95.60;;;;;;4949554;28;20030;-80
2022/10/27 03:37:37;;;;;;;1.23;0.90;;;15.20;95.70;;;;;;4992094;28;20099;-81
2022/10/27 03:40:03;;;;;;;1.50;0.90;;;15.20;95.70;;;;;;4983602;28;20046;-79
2022/10/27 03:42:29;;;;;;;2.10;0.77;;;15.20;95.80;;;;;;4989822;28;20204;-80
2022/10/27 03:44:55;;;;;;;4.40;0.90;;;15.20;95.90;;;;;;4992150;28;20065;-80
2022/10/27 03:47:20;;;;;;;1.23;0.80;;;15.10;95.90;;;;;;4984193;28;20318;-80
2022/10/27 03:49:46;;;;;;;2.37;0.80;;;15.10;95.90;;;;;;4951392;28;20037;-80
2022/10/27 03:52:11;;;;;;;0.98;0.80;;;15.10;95.90;;;;;;4990871;28;21321;-80
2022/10/27 03:54:37;;;;;;;1.63;0.90;;;15.10;95.90;;;;;;4977722;28;20057;-81
2022/10/27 03:57:03;;;;;;;1.57;0.90;;;15.10;95.90;;;;;;4980858;28;20029;-80
2022/10/27 03:59:28;;;;;;;1.33;0.80;;;15.00;95.90;;;;;;4980105;28;20041;-80
2022/10/27 04:01:54;;;;;;;2.13;0.80;;;15.00;95.90;;;;;;4973373;28;20080;-80
2022/10/27 04:04:19;;;;;;;1.20;0.80;;;15.00;95.90;;;;;;4980429;28;20311;-80
2022/10/27 04:06:45;;;;;;;1.03;0.80;;;14.90;95.90;;;;;;4969793;28;20287;-80
2022/10/27 04:09:11;;;;;;;1.67;0.80;;;14.90;95.90;;;;;;4990857;28;20046;-80
2022/10/27 04:11:36;;;;;;;0.98;0.63;;;14.90;96.00;;;;;;4982854;28;20088;-80
2022/10/27 04:14:02;;;;;;;1.53;0.80;;;14.90;96.00;;;;;;4990153;28;20064;-80
2022/10/27 04:16:28;;;;;;;1.98;0.82;;;14.90;96.10;;;;;;4989019;28;20341;-80
2022/10/27 04:18:54;;;;;;;2.13;0.90;;;14.90;96.10;;;;;;4980814;28;20030;-81
2022/10/27 04:21:19;;;;;;;1.75;0.70;;;14.90;96.20;;;;;;4966957;28;20109;-80
2022/10/27 04:23:45;;;;;;;1.37;0.70;;;14.80;96.30;;;;;;4988344;28;20120;-79
2022/10/27 04:26:11;;;;;;;3.65;0.75;;;14.80;96.30;;;;;;4978337;28;20172;-80
2022/10/27 04:28:36;;;;;;;2.03;0.80;;;14.80;96.40;;;;;;4992992;28;20168;-80
2022/10/27 04:31:02;;;;;;;1.95;0.80;;;14.80;96.40;;;;;;4987642;28;20095;-80
2022/10/27 04:33:27;;;;;;;1.27;0.70;;;14.80;96.40;;;;;;4971173;28;20038;-80
2022/10/27 04:35:53;;;;;;;1.27;0.70;;;14.80;96.50;;;;;;4965888;28;20048;-80
2022/10/27 04:38:19;;;;;;;1.77;0.83;;;14.80;96.50;;;;;;4967322;28;20247;-80
2022/10/27 04:40:44;;;;;;;1.30;0.70;;;14.80;96.50;;;;;;4977006;28;20060;-81
2022/10/27 04:43:10;;;;;;;1.60;0.80;;;14.80;96.90;;;;;;4977973;28;20037;-80
2022/10/27 04:45:36;;;;;;;1.73;0.80;;;14.80;96.60;;;;;;4992286;28;20022;-80
2022/10/27 04:48:01;;;;;;;1.92;0.70;;;14.80;96.60;;;;;;4990466;28;20108;-80
2022/10/27 04:50:27;;;;;;;1.07;0.80;;;14.80;96.60;;;;;;4986026;28;20204;-80
2022/10/27 04:52:57;;;;;;;1.50;0.70;;;14.80;96.60;;;;;;4967487;28;20126;-80
2022/10/27 04:55:24;;;;;;;1.20;0.70;;;14.70;96.70;;;;;;4991662;28;20313;-80
2022/10/27 04:57:50;;;;;;;1.02;0.70;;;14.70;96.70;;;;;;4989754;28;20613;-80
2022/10/27 05:00:16;;;;;;;1.30;0.70;;;14.70;96.70;;;;;;4949236;28;20251;-80
2022/10/27 05:02:42;;;;;;;1.20;0.73;;;14.70;96.70;;;;;;4979020;28;20415;-80
2022/10/27 05:05:08;;;;;;;1.50;0.77;;;14.70;96.70;;;;;;4966507;28;20030;-80
2022/10/27 05:07:33;;;;;;;1.00;0.80;;;14.70;96.80;;;;;;5005316;28;20603;-80
2022/10/27 05:09:59;;;;;;;1.60;0.70;;;14.70;96.80;;;;;;4946683;28;20030;-80
2022/10/27 05:12:24;;;;;;;1.53;0.77;;;14.70;96.90;;;;;;4988991;28;20145;-80
2022/10/27 05:14:50;;;;;;;1.23;0.70;;;14.70;96.90;;;;;;4961773;28;21129;-80
2022/10/27 05:17:16;;;;;;;1.43;0.90;;;14.70;96.90;;;;;;4972564;28;20037;-80
2022/10/27 05:19:41;;;;;;;0.88;0.70;;;14.60;96.90;;;;;;4991431;28;20391;-80
2022/10/27 05:22:07;;;;;;;1.63;0.90;;;14.60;96.80;;;;;;4979263;28;20528;-80
2022/10/27 05:24:32;;;;;;;1.40;0.80;;;14.60;96.90;;;;;;4943529;28;20038;-80
2022/10/27 05:26:58;;;;;;;1.70;0.90;;;14.60;96.90;;;;;;4965840;28;20092;-80
2022/10/27 05:29:24;;;;;;;1.50;0.83;;;14.60;96.80;;;;;;4972607;28;20034;-80
2022/10/27 05:31:51;;;;;;;2.55;0.80;;;14.60;96.90;;;;;;4977155;28;20397;-80
2022/10/27 05:34:17;;;;;;;1.17;0.80;;;14.60;96.90;;;;;;4968452;28;20113;-80
2022/10/27 05:36:42;;;;;;;0.60;0.60;;;14.50;96.80;;;;;;4976156;28;20245;-80
2022/10/27 05:39:08;;;;;;;1.17;0.60;;;14.60;96.90;;;;;;4978815;28;20071;-80
2022/10/27 05:41:34;;;;;;;0.93;0.70;;;14.50;96.90;;;;;;4961947;28;20041;-80
2022/10/27 05:43:59;;;;;;;1.00;0.60;;;14.50;96.90;;;;;;4979875;28;20220;-80
2022/10/27 05:46:25;;;;;;;1.10;0.80;;;14.50;97.00;;;;;;4971101;28;20033;-80
2022/10/27 05:48:50;;;;;;;1.67;0.70;;;14.50;97.00;;;;;;4989451;28;20172;-80
2022/10/27 05:51:16;;;;;;;1.10;0.80;;;14.40;97.00;;;;;;4976245;28;20280;-80
2022/10/27 05:53:42;;;;;;;1.20;0.80;;;14.40;97.00;;;;;;4999766;28;20113;-83
2022/10/27 05:56:07;;;;;;;0.95;0.63;;;14.40;97.00;;;;;;4964845;28;20144;-82
2022/10/27 05:58:33;;;;;;;1.73;0.80;;;14.40;97.00;;;;;;4999538;28;20022;-82
2022/10/27 06:00:59;;;;;;;0.95;0.70;;;14.40;97.00;;;;;;4968286;28;20022;-82
2022/10/27 06:03:25;;;;;;;1.23;0.67;;;14.40;97.10;;;;;;4994624;28;20021;-82
2022/10/27 06:05:52;;;;;;;1.17;0.63;;;14.30;97.00;;;;;;4991415;28;20029;-82
2022/10/27 06:08:18;;;;;;;3.38;0.77;;;14.30;97.10;;;;;;4987156;28;20283;-82
2022/10/27 06:10:45;;;;;;;0.93;0.70;;;14.30;97.10;;;;;;4959548;28;20030;-83
2022/10/27 06:13:14;;;;;;;0.80;0.60;;;14.30;97.20;;;;;;4988694;28;20030;-83
2022/10/27 06:15:41;;;;;;;1.00;0.60;;;14.30;97.20;;;;;;4992435;28;20030;-83
2022/10/27 06:18:07;;;;;;;1.50;0.60;;;14.30;97.30;;;;;;4955573;28;20036;-83
2022/10/27 06:20:32;;;;;;;1.58;0.80;;;14.30;97.30;;;;;;4993303;28;20018;-82
2022/10/27 06:22:58;;;;;;;1.17;0.57;;;14.30;97.40;;;;;;4972877;28;20033;-82
2022/10/27 06:25:24;;;;;;;1.13;0.70;;;14.20;97.50;;;;;;4978575;28;20046;-83
2022/10/27 06:27:50;;;;;;;0.60;0.60;;;14.30;97.60;;;;;;4959658;28;20030;-82
2022/10/27 06:30:16;;;;;;;1.03;0.60;;;14.30;97.60;;;;;;4979795;28;20398;-83
2022/10/27 06:32:42;;;;;;;2.83;0.80;;;14.30;97.70;;;;;;4978243;28;20676;-82
2022/10/27 06:35:08;;;;;;;1.52;0.70;;;14.30;97.80;;;;;;4995177;28;20025;-82
2022/10/27 06:37:43;;;;;;;1.80;0.70;;;14.30;97.90;;;;;;4984880;28;20398;-82
2022/10/27 06:40:11;;;;;;;1.67;0.70;;;14.30;98.00;;;;;;4994906;28;20068;-80
2022/10/27 06:42:37;;;;;;;1.25;0.57;;;14.30;98.20;;;;;;4938177;28;20018;-81
2022/10/27 06:45:04;;;;;;;1.98;0.77;;;14.40;98.30;;;;;;4989511;28;20510;-80
2022/10/27 06:47:31;;;;;;;2.20;0.70;;;14.40;98.40;;;;;;4978796;28;20266;-80
2022/10/27 06:49:56;;;;;;;1.43;0.70;;;14.50;98.60;;;;;;4992760;28;20038;-80
2022/10/27 06:52:22;;;;;;;1.38;0.70;;;14.50;98.70;;;;;;4953973;28;20040;-80
2022/10/27 06:54:47;;;;;;;1.23;0.80;;;14.60;98.90;;;;;;4973577;28;20044;-81
2022/10/27 06:57:13;;;;;;;1.10;0.70;;;14.70;99.50;;;;;;4965987;28;20023;-80
2022/10/27 06:59:39;;;;;;;1.13;0.70;;;14.70;99.10;;;;;;4971979;28;20136;-80
2022/10/27 07:02:05;;;;;;;1.20;0.70;;;14.80;99.20;;;;;;4982693;28;20276;-81
2022/10/27 07:04:31;;;;;;;1.55;0.60;;;14.90;99.20;;;;;;4983042;28;20546;-80
2022/10/27 07:06:57;;;;;;;1.87;0.63;;;14.90;99.20;;;;;;4978303;28;20018;-80
2022/10/27 07:09:22;;;;;;;1.70;0.70;;;15.00;99.20;;;;;;4999540;28;20751;-80
2022/10/27 07:11:48;;;;;;;1.10;0.70;;;15.10;99.20;;;;;;4968864;28;20025;-80
2022/10/27 07:14:13;;;;;;;1.98;0.85;;;15.10;99.20;;;;;;4983721;28;20394;-81
2022/10/27 07:16:39;;;;;;;0.77;0.50;;;15.20;99.40;;;;;;4984706;28;20521;-80
2022/10/27 07:19:05;;;;;;;1.25;0.60;;;15.30;99.40;;;;;;4986445;28;20566;-81
2022/10/27 07:21:31;;;;;;;1.70;0.53;;;15.40;99.40;;;;;;4986764;28;20533;-81
2022/10/27 07:23:56;;;;;;;1.50;0.77;;;15.40;99.40;;;;;;4986671;28;20036;-81
2022/10/27 07:26:23;;;;;;;0.60;0.60;;;15.60;99.60;;;;;;4990675;28;20077;-80
2022/10/27 07:28:48;;;;;;;1.80;0.60;;;15.60;99.70;;;;;;4967820;28;20034;-81
2022/10/27 07:31:14;;;;;;;1.37;0.70;;;15.70;99.80;;;;;;4983630;28;20034;-80
2022/10/27 07:33:39;;;;;;;0.60;0.60;;;15.90;99.80;;;;;;4983373;28;20544;-80
2022/10/27 07:36:05;;;;;;;0.87;0.60;;;16.00;99.80;;;;;;4989416;28;20395;-81
2022/10/27 07:38:31;;;;;;;2.08;0.70;;;16.10;99.80;;;;;;4993704;28;20561;-81
2022/10/27 07:40:57;;;;;;;0.70;0.60;;;16.20;99.70;;;;;;4988128;28;20014;-80
2022/10/27 07:43:22;;;;;;;1.17;0.68;;;16.30;99.70;;;;;;4971317;28;20647;-80
2022/10/27 07:45:48;;;;;;;0.97;0.60;;;16.40;99.60;;;;;;4990830;28;20033;-81
2022/10/27 07:48:15;;;;;;;1.90;0.73;;;16.50;99.60;;;;;;4987303;28;20029;-81
2022/10/27 07:50:42;;;;;;;1.52;0.68;;;16.50;99.50;;;;;;4983714;28;20116;-81
2022/10/27 07:53:09;;;;;;;0.77;0.60;;;16.60;99.60;;;;;;4985417;28;20494;-81
2022/10/27 07:55:35;;;;;;;1.63;0.70;;;16.70;99.70;;;;;;4973991;28;20224;-83
2022/10/27 07:58:12;;;;;;;1.85;0.55;;;16.80;99.70;;;;;;4977667;28;20520;-83
2022/10/27 08:00:41;;;;;;;2.10;0.67;;;16.90;99.50;;;;;;4993322;28;20625;-83
2022/10/27 08:03:13;;;;;;;1.60;0.50;;;17.00;99.70;;;;;;4976056;28;20030;-83
2022/10/27 08:05:38;;;;;;;1.48;0.75;;;17.10;99.60;;;;;;4973848;28;20148;-83
2022/10/27 08:08:06;;;;;;;2.63;0.70;;;17.20;99.80;;;;;;4993314;28;20541;-83
2022/10/27 08:10:34;;;;;;;2.13;0.70;;;17.30;99.80;;;;;;4992396;28;20717;-83
2022/10/27 08:13:00;;;;;;;2.85;0.60;;;17.40;99.70;;;;;;4992994;28;20026;-83
2022/10/27 08:15:26;;;;;;;1.35;0.60;;;17.50;99.80;;;;;;4964091;28;20119;-83
2022/10/27 08:17:53;;;;;;;1.10;0.67;;;17.60;99.70;;;;;;4995745;28;20018;-83
2022/10/27 08:20:19;;;;;;;1.77;0.65;;;17.70;99.70;;;;;;4967089;28;20495;-83
2022/10/27 08:22:45;;;;;;;0.80;0.60;;;17.80;99.60;;;;;;4967452;28;20125;-83
2022/10/27 08:25:10;;;;;;;2.13;0.60;;;17.90;99.50;;;;;;4992700;28;20046;-83
2022/10/27 08:27:36;;;;;;;0.98;0.70;;;18.00;99.50;;;;;;4989370;28;20030;-82
2022/10/27 08:30:02;;;;;;;1.90;0.73;;;18.10;99.40;;;;;;4979635;28;20366;-82
2022/10/27 08:32:28;;;;;;;1.63;0.70;;;18.20;99.50;;;;;;4977900;28;20430;-83
2022/10/27 08:34:53;;;;;;;1.58;0.60;;;18.30;99.50;;;;;;5000412;28;20029;-83
2022/10/27 08:37:19;;;;;;;0.80;0.53;;;18.40;99.40;;;;;;4970612;28;20030;-83
2022/10/27 08:39:45;;;;;;;0.75;0.60;;;18.50;99.40;;;;;;4993088;28;20030;-80
2022/10/27 08:42:29;;;;;;;1.43;0.70;;;18.60;99.40;;;;;;4996338;28;20041;-79
2022/10/27 08:45:03;;;;;;;1.08;0.57;;;18.70;99.40;;;;;;4968706;28;20439;-80
2022/10/27 08:47:29;;;;;;;1.02;0.60;;;18.80;99.20;;;;;;4992567;28;20309;-80
2022/10/27 08:50:08;;;;;;;1.83;0.70;;;18.90;99.50;;;;;;4985828;28;20048;-80
2022/10/27 08:53:01;;;;;;;1.23;0.70;;;19.10;99.00;;;;;;4973244;28;20241;-81
2022/10/27 08:55:30;;;;;;;1.52;0.55;;;19.20;98.80;;;;;;4988579;28;20121;-80
2022/10/27 08:58:05;;;;;;;1.23;0.70;;;19.30;99.60;;;;;;4969456;28;20133;-81
2022/10/27 09:00:50;;;;;;;2.22;0.73;;;19.40;99.20;;;;;;4951492;28;20045;-80
2022/10/27 09:03:30;;;;;;;2.00;0.70;;;19.60;99.80;;;;;;4988766;28;20050;-80
2022/10/27 09:06:23;;;;;;;1.35;0.60;;;19.80;99.90;;;;;;4970949;28;20022;-81
2022/10/27 09:09:29;;;;;;;1.42;0.80;;;20.10;99.90;;;;;;4976289;28;20042;-80
2022/10/27 09:12:25;;;;;;;1.47;0.77;;;20.50;99.90;;;;;;4988033;28;20609;-80
2022/10/27 09:15:26;;;;;;;1.63;0.77;;;20.90;99.90;;;;;;4967656;28;20034;-80
2022/10/27 09:18:00;;;;;;;1.40;0.80;;;21.30;99.90;;;;;;4971071;28;20305;-81
2022/10/27 09:20:32;;;;;;;1.27;0.88;;;21.70;99.90;;;;;;4980992;28;20212;-80
2022/10/27 09:23:00;;;;;;;2.10;1.13;;;22.00;99.90;;;;;;4977629;28;20230;-80
2022/10/27 09:25:27;;;;;;;2.43;0.97;;;22.40;99.90;;;;;;4989508;28;20054;-81
2022/10/27 09:27:55;;;;;;;1.80;0.80;;;22.70;99.90;;;;;;4963802;28;20258;-80
2022/10/27 09:30:21;;;;;;;1.88;1.08;;;23.20;99.90;;;;;;4952915;28;20021;-80
2022/10/27 09:32:52;;;;;;;1.47;0.87;;;23.60;99.90;;;;;;4989298;28;20030;-80
2022/10/27 09:35:23;;;;;;;1.38;0.90;;;24.10;99.90;;;;;;4964517;28;20286;-81
2022/10/27 09:37:50;;;;;;;2.33;1.10;;;24.50;98.90;;;;;;4979284;28;20030;-80
2022/10/27 09:40:18;;;;;;;1.80;0.90;;;24.70;99.30;;;;;;4990657;28;20256;-81
2022/10/27 09:42:45;;;;;;;3.15;1.00;;;25.00;98.70;;;;;;4993847;28;20033;-81
2022/10/27 09:45:13;;;;;;;2.60;1.10;;;25.20;98.10;;;;;;4965548;28;20034;-80
2022/10/27 09:47:41;;;;;;;1.85;1.00;;;25.40;97.10;;;;;;4961585;28;20038;-80
2022/10/27 09:50:17;;;;;;;1.30;0.90;;;25.40;95.80;;;;;;4976841;28;20030;-81
2022/10/27 09:52:43;;;;;;;2.70;0.85;;;25.40;94.30;;;;;;4966221;28;20052;-80
2022/10/27 09:55:10;;;;;;;2.40;1.10;;;25.50;96.30;;;;;;4979899;28;20522;-81
2022/10/27 09:58:20;;;;;;;2.37;1.00;;;25.40;95.50;;;;;;4973272;28;20022;-80
2022/10/27 10:00:56;;;;;;;1.33;0.80;;;25.40;93.70;;;;;;4954754;28;20658;-80
2022/10/27 10:03:22;;;;;;;1.95;0.90;;;25.50;94.30;;;;;;4951015;28;20026;-80
2022/10/27 10:06:02;;;;;;;1.33;0.95;;;25.40;95.60;;;;;;4976314;28;20061;-80
2022/10/27 10:25:27;;;;;;;2.85;0.90;;;24.50;92.10;;;;;;4926583;28;20089;-80
2022/10/27 10:28:04;;;;;;;2.37;0.90;;;24.40;93.30;;;;;;4989758;28;20041;-80
2022/10/27 10:30:38;;;;;;;1.88;1.05;;;24.30;93.60;;;;;;4971477;28;20030;-80
2022/10/27 10:33:05;;;;;;;2.17;0.93;;;24.20;93.60;;;;;;4969872;28;20042;-80
2022/10/27 10:35:46;;;;;;;1.98;1.00;;;24.20;94.60;;;;;;4985626;28;20541;-80
2022/10/27 10:38:34;;;;;;;2.15;1.10;;;24.20;93.10;;;;;;4997184;28;20382;-80
2022/10/27 10:41:04;;;;;;;1.73;1.00;;;24.10;92.50;;;;;;4986665;28;20038;-80
2022/10/27 10:43:30;;;;;;;2.90;1.00;;;24.10;93.50;;;;;;4974032;28;20113;-80
2022/10/27 10:45:57;;;;;;;1.42;0.82;;;24.00;94.60;;;;;;4974771;28;20022;-81
2022/10/27 10:48:38;;;;;;;2.17;0.98;;;24.00;93.90;;;;;;4979928;28;20017;-79
2022/10/27 10:51:06;;;;;;;1.88;0.90;;;24.00;93.00;;;;;;4995651;28;20034;-80
2022/10/27 10:53:47;;;;;;;1.23;0.70;;;24.00;93.40;;;;;;4986351;28;20223;-80
2022/10/27 10:56:26;;;;;;;2.45;0.90;;;23.90;93.10;;;;;;4964306;28;20037;-80
2022/10/27 10:59:15;;;;;;;2.70;0.90;;;23.80;92.40;;;;;;4994178;28;20037;-80
2022/10/27 11:02:10;;;;;;;1.83;1.10;;;23.80;92.50;;;;;;4972023;28;20537;-80
2022/10/27 11:04:43;;;;;;;3.13;1.08;;;23.80;92.10;;;;;;4962503;28;20048;-82
2022/10/27 11:07:23;;;;;;;3.13;1.10;;;23.80;92.90;;;;;;4980287;28;20030;-83
2022/10/27 11:10:17;;;;;;;3.72;1.30;;;23.70;93.00;;;;;;5000654;28;20033;-82
2022/10/27 11:13:03;;;;;;;1.98;1.10;;;23.70;91.90;;;;;;4972979;28;20224;-82
2022/10/27 11:15:31;;;;;;;3.10;1.10;;;23.70;91.90;;;;;;4960338;28;20183;-82
2022/10/27 11:18:11;;;;;;;2.15;1.15;;;23.60;92.70;;;;;;4969942;28;20038;-80
2022/10/27 11:20:37;;;;;;;2.90;1.20;;;23.60;92.90;;;;;;4982927;28;20248;-80
2022/10/27 11:23:14;;;;;;;3.20;1.27;;;23.60;93.40;;;;;;4982552;28;20034;-81
2022/10/27 11:25:40;;;;;;;2.70;1.20;;;23.70;93.10;;;;;;4990916;28;20109;-81
2022/10/27 11:28:18;;;;;;;2.58;1.20;;;23.80;93.40;;;;;;4989968;28;20104;-80
2022/10/27 11:31:10;;;;;;;3.60;1.30;;;23.80;92.50;;;;;;4961109;28;20341;-80
2022/10/27 11:34:00;;;;;;;2.43;1.13;;;23.80;92.30;;;;;;4978874;28;20279;-80
2022/10/27 11:36:41;;;;;;;2.38;1.27;;;23.90;92.70;;;;;;4969229;28;20109;-81
2022/10/27 11:39:21;;;;;;;3.25;1.40;;;24.00;92.90;;;;;;4983883;28;20042;-80
2022/10/27 11:41:59;;;;;;;2.45;1.20;;;24.10;92.90;;;;;;4988175;28;20248;-80
2022/10/27 11:44:37;;;;;;;6.75;1.50;;;24.30;93.20;;;;;;4985701;28;20030;-80
2022/10/27 11:47:27;;;;;;;2.20;1.30;;;24.40;93.20;;;;;;4988999;28;20025;-81
2022/10/27 11:50:14;;;;;;;2.80;1.10;;;24.50;92.20;;;;;;5001879;28;20056;-81
2022/10/27 11:52:52;;;;;;;3.50;1.30;;;24.70;93.20;;;;;;4965737;28;20601;-81
2022/10/27 11:55:22;;;;;;;3.50;1.52;;;24.80;92.20;;;;;;4984102;28;20026;-80
2022/10/27 11:57:48;;;;;;;2.83;1.38;;;24.80;92.80;;;;;;4995281;28;20021;-80
2022/10/27 12:00:28;;;;;;;2.37;1.20;;;24.80;92.90;;;;;;4983822;28;20308;-80
2022/10/27 12:03:19;;;;;;;2.40;1.35;;;24.80;91.70;;;;;;4984176;28;20518;-80
2022/10/27 12:06:06;;;;;;;1.77;1.23;;;24.80;91.50;;;;;;5000360;28;20323;-81
2022/10/27 12:09:01;;;;;;;3.70;1.47;;;24.80;91.70;;;;;;4941048;28;20633;-80
2022/10/27 12:12:06;;;;;;;2.35;1.40;;;24.80;91.90;;;;;;4991612;28;20037;-80
2022/10/27 12:14:53;;;;;;;2.17;1.17;;;24.80;91.10;;;;;;4989771;28;20113;-80
2022/10/27 12:17:37;;;;;;;2.40;1.25;;;24.80;91.40;;;;;;4970039;28;20482;-80
2022/10/27 12:20:07;;;;;;;2.25;1.40;;;24.80;91.50;;;;;;4971395;28;20084;-81
2022/10/27 12:22:38;;;;;;;2.33;1.17;;;24.80;92.30;;;;;;4965019;28;20064;-80
2022/10/27 12:25:19;;;;;;;3.80;1.45;;;24.80;91.90;;;;;;4970985;28;20021;-80
2022/10/27 12:27:47;;;;;;;2.42;1.40;;;24.70;92.40;;;;;;4970824;28;20191;-80
2022/10/27 12:30:16;;;;;;;4.50;1.83;;;24.70;92.10;;;;;;4979454;28;20026;-80
2022/10/27 12:32:56;;;;;;;3.08;1.40;;;24.70;92.00;;;;;;4968072;28;20224;-80
2022/10/27 12:35:31;;;;;;;3.27;1.23;;;24.70;92.20;;;;;;4980107;28;20047;-81
2022/10/27 12:38:18;;;;;;;4.05;1.33;;;24.80;92.00;;;;;;4970477;28;20076;-80
2022/10/27 12:40:59;;;;;;;2.72;1.42;;;24.80;91.20;;;;;;4989738;28;20247;-81
2022/10/27 12:43:38;;;;;;;3.40;1.48;;;24.90;92.80;;;;;;4980383;28;20022;-81
2022/10/27 12:46:33;;;;;;;3.20;1.42;;;25.00;92.00;;;;;;4983288;28;20300;-80
2022/10/27 12:49:10;;;;;;;2.37;1.10;;;25.00;91.10;;;;;;4998466;28;20038;-81
2022/10/27 12:51:50;;;;;;;3.47;1.50;;;25.10;92.10;;;;;;4979956;28;20049;-81
2022/10/27 12:54:34;;;;;;;3.15;1.40;;;25.20;91.30;;;;;;4956066;28;20025;-81
2022/10/27 12:57:14;;;;;;;3.17;1.50;;;25.30;91.40;;;;;;4998416;28;20330;-81
2022/10/27 13:00:02;;;;;;;5.30;1.60;;;25.30;92.20;;;;;;4975251;28;20658;-80
2022/10/27 13:02:53;;;;;;;4.13;1.70;;;25.40;90.60;;;;;;4968465;28;20633;-80
2022/10/27 13:05:18;;;;;;;5.25;1.63;;;25.40;90.50;;;;;;4978998;28;20667;-81
2022/10/27 13:08:19;;;;;;;4.10;1.65;;;25.40;91.60;;;;;;4960598;28;20044;-80
2022/10/27 13:10:57;;;;;;;4.13;1.23;;;25.40;90.40;;;;;;4981973;28;20052;-80
2022/10/27 13:13:51;;;;;;;2.47;1.48;;;25.40;90.20;;;;;;4981627;28;20025;-81
2022/10/27 13:16:32;;;;;;;6.20;1.60;;;25.40;89.90;;;;;;4969330;28;20538;-80
2022/10/27 13:19:10;;;;;;;3.03;1.40;;;25.40;91.40;;;;;;4979471;28;20682;-80
2022/10/27 13:21:43;;;;;;;2.05;1.25;;;25.40;90.40;;;;;;4978117;28;20046;-80
2022/10/27 13:24:21;;;;;;;3.77;1.67;;;25.40;90.50;;;;;;4957255;28;20025;-81
2022/10/27 13:27:07;;;;;;;3.53;1.50;;;25.40;90.50;;;;;;4972959;28;20088;-80